»·PEaware :: UAL2381 KMIA-KORD

UAL2381 :: KMIA-KORD

FLIGHT INFORMATION

Flight Status: Arrived
Operator:
United Airlines
More flights by this operator :: More flights under this callsign
Pilot: Anonymous 14085 (14085)
Aircraft: BOEING 757-200
(B752)
More flights by this aircraft type
Origin: KMIA Miami Intl
United States
Destination: KORD Chicago-O'Hare Intl
United States
More flights between these airports :: More routes between these airports
Route: HEDLY2 HEDLY ORL J81 VQQ AMG J46 VXV VOSTK HEVAN MZZ VEECK3
File this flight plan on PilotEdge
Remarks: PBN / A1B3B4B5C4D4O4 DOF / 170612 REG / N537SB EET / KZJX0027 KZTL0058 KZID0138 KZAU0211 OPR / UAL RMK / TCAS SIMBRIEF
Altitude:
(Current/Filed)
40,000ft
Speed:
(Current/Filed)
441kts
Departed: 12-Jun-17 03:31 PM
Arrived: 12-Jun-17 06:03 PM
Distance/Time
Traveled:
1041nm/2:32
Distance/Time
To Go:
Arrived

Flight Plot

Page will automatically refresh every two minutes.

Flight plan parsing failed; only flown route is shown


Map Options




Map Legend


Flown Route
Filed Route
Departure Airport
Arrival Airport
Navaid (VOR, NDB)
Fix

Horizontal Profiles

Position Reports

Time Latitude Longitude Heading Altitude Ground
Speed
12-Jun-17 15:13 25.792188 -80.279209 117 16ft 0kts
12-Jun-17 15:14 25.792188 -80.279209 117 16ft 0kts
12-Jun-17 15:15 25.792188 -80.279209 117 16ft 0kts
12-Jun-17 15:16 25.792188 -80.279209 117 16ft 0kts
12-Jun-17 15:17 25.792188 -80.279209 117 16ft 0kts
12-Jun-17 15:18 25.792188 -80.279209 117 16ft 0kts
12-Jun-17 15:19 25.792188 -80.279209 117 16ft 0kts
12-Jun-17 15:20 25.792188 -80.279209 117 16ft 0kts
12-Jun-17 15:21 25.792188 -80.279209 117 16ft 0kts
12-Jun-17 15:22 25.792188 -80.279209 117 16ft 0kts
12-Jun-17 15:23 25.792188 -80.279209 117 16ft 0kts
12-Jun-17 15:24 25.792188 -80.279209 117 16ft 0kts
12-Jun-17 15:25 25.792188 -80.279209 117 16ft 0kts
12-Jun-17 15:26 25.792188 -80.279209 117 16ft 0kts
12-Jun-17 15:27 25.792514 -80.279484 202 16ft 5kts
12-Jun-17 15:28 25.790562 -80.281052 246 15ft 13kts
12-Jun-17 15:29 25.792466 -80.284649 308 15ft 19kts
12-Jun-17 15:30 25.795375 -80.290320 296 15ft 25kts
12-Jun-17 15:31 25.799420 -80.298569 293 16ft 33kts
12-Jun-17 15:32 25.798653 -80.301053 120 15ft 0kts
12-Jun-17 15:33 25.795125 -80.294044 119 16ft 120kts
12-Jun-17 15:34 25.755667 -80.293219 187 2901ft 182kts
12-Jun-17 15:35 25.724403 -80.247877 88 5367ft 249kts
12-Jun-17 15:36 25.756081 -80.183730 20 9406ft 276kts
12-Jun-17 15:37 25.828016 -80.213826 311 12529ft 326kts
12-Jun-17 15:38 25.894689 -80.290918 327 15398ft 367kts
12-Jun-17 15:39 25.992808 -80.339761 339 17820ft 409kts
12-Jun-17 15:40 26.102451 -80.380484 342 20710ft 427kts
12-Jun-17 15:41 26.207820 -80.422885 345 24639ft 403kts
12-Jun-17 15:42 26.311520 -80.461639 338 27446ft 400kts
12-Jun-17 15:43 26.416383 -80.501934 341 29485ft 409kts
12-Jun-17 15:44 26.528150 -80.544271 341 30268ft 447kts
12-Jun-17 15:45 26.648175 -80.591567 340 31676ft 463kts
12-Jun-17 15:46 26.768539 -80.639290 338 33653ft 462kts
12-Jun-17 15:47 26.886892 -80.684666 339 35778ft 455kts
12-Jun-17 15:48 27.005285 -80.730756 337 37650ft 451kts
12-Jun-17 15:49 27.120769 -80.777491 338 39256ft 450kts
12-Jun-17 15:50 27.227119 -80.819222 338 40078ft 449kts
12-Jun-17 15:51 27.321498 -80.855709 339 40092ft 449kts
12-Jun-17 15:53 27.459567 -80.907715 338 40099ft 449kts
12-Jun-17 15:54 27.577074 -80.953580 338 40101ft 449kts
12-Jun-17 15:54 27.675398 -80.992200 338 40101ft 449kts
12-Jun-17 15:56 27.812718 -81.046429 338 40101ft 450kts
12-Jun-17 15:57 27.930191 -81.092718 338 40100ft 450kts
12-Jun-17 15:57 28.028118 -81.131467 338 40100ft 450kts
12-Jun-17 15:58 28.144751 -81.177729 338 40102ft 450kts
12-Jun-17 16:00 28.282106 -81.232408 338 40129ft 450kts
12-Jun-17 16:01 28.399973 -81.279470 338 40128ft 450kts
12-Jun-17 16:01 28.497997 -81.318529 338 40128ft 450kts
12-Jun-17 16:02 28.617113 -81.361810 341 40128ft 451kts
12-Jun-17 16:03 28.737006 -81.401423 341 40127ft 452kts
12-Jun-17 16:04 28.857377 -81.441056 341 40126ft 452kts
12-Jun-17 16:05 28.973428 -81.481574 341 40036ft 451kts
12-Jun-17 16:06 29.093427 -81.521673 341 40125ft 452kts
12-Jun-17 16:07 29.213550 -81.561529 341 40127ft 452kts
12-Jun-17 16:08 29.333955 -81.601527 341 40126ft 452kts
12-Jun-17 16:09 29.454187 -81.641561 341 40126ft 452kts
12-Jun-17 16:10 29.573231 -81.681295 341 40131ft 452kts
12-Jun-17 16:11 29.693507 -81.721533 341 40130ft 452kts
12-Jun-17 16:12 29.813095 -81.761642 341 40130ft 452kts
12-Jun-17 16:13 29.933460 -81.802114 341 40129ft 453kts
12-Jun-17 16:14 30.053881 -81.842708 341 40129ft 453kts
12-Jun-17 16:15 30.170955 -81.882275 341 40131ft 453kts
12-Jun-17 16:16 30.288448 -81.931359 336 40131ft 451kts
12-Jun-17 16:17 30.404757 -81.984864 336 40130ft 451kts
12-Jun-17 16:18 30.518359 -82.037339 336 40129ft 451kts
12-Jun-17 16:19 30.634725 -82.091241 336 40128ft 451kts
12-Jun-17 16:20 30.750727 -82.145116 336 40128ft 451kts
12-Jun-17 16:21 30.867068 -82.199289 336 40072ft 451kts
12-Jun-17 16:22 30.983063 -82.253440 336 40073ft 452kts
12-Jun-17 16:23 31.099505 -82.307949 336 40072ft 452kts
12-Jun-17 16:24 31.209843 -82.359723 336 40074ft 452kts
12-Jun-17 16:25 31.326385 -82.414557 336 40073ft 452kts
12-Jun-17 16:26 31.442380 -82.469283 336 40111ft 451kts
12-Jun-17 16:27 31.559001 -82.520481 343 40154ft 452kts
12-Jun-17 16:28 31.679744 -82.559576 342 40154ft 451kts
12-Jun-17 16:29 31.800036 -82.599413 342 40153ft 451kts
12-Jun-17 16:30 31.920571 -82.638672 342 40152ft 451kts
12-Jun-17 16:31 32.037525 -82.677017 341 40156ft 451kts
12-Jun-17 16:32 32.142590 -82.710901 342 40159ft 452kts
12-Jun-17 16:33 32.259575 -82.749705 341 40158ft 451kts
12-Jun-17 16:34 32.379691 -82.790338 340 40157ft 451kts
12-Jun-17 16:35 32.499309 -82.832646 341 40157ft 451kts
12-Jun-17 16:36 32.619967 -82.872679 341 40157ft 451kts
12-Jun-17 16:37 32.740183 -82.914208 341 40156ft 452kts
12-Jun-17 16:38 32.860784 -82.955228 341 40156ft 452kts
12-Jun-17 16:39 32.981289 -82.996228 341 40155ft 452kts
12-Jun-17 16:40 33.101470 -83.037219 341 40154ft 452kts
12-Jun-17 16:41 33.207032 -83.072184 342 40157ft 452kts
12-Jun-17 16:42 33.327025 -83.113017 341 40129ft 452kts
12-Jun-17 16:43 33.447226 -83.154337 341 40129ft 452kts
12-Jun-17 16:44 33.567995 -83.195983 341 40128ft 452kts
12-Jun-17 16:45 33.688453 -83.237644 341 40155ft 452kts
12-Jun-17 16:46 33.808759 -83.279371 341 40154ft 452kts
12-Jun-17 16:47 33.929450 -83.320666 342 40154ft 452kts
12-Jun-17 16:48 34.047408 -83.354996 344 40153ft 453kts
12-Jun-17 16:49 34.162649 -83.387562 344 40155ft 453kts
12-Jun-17 16:50 34.282624 -83.421834 344 40182ft 453kts
12-Jun-17 16:51 34.404534 -83.456810 344 40181ft 453kts
12-Jun-17 16:52 34.526847 -83.492045 344 40154ft 453kts
12-Jun-17 16:53 34.650073 -83.527622 343 40155ft 464kts
12-Jun-17 16:54 34.775273 -83.563883 342 40154ft 464kts
12-Jun-17 16:55 34.900304 -83.601197 343 40048ft 465kts
12-Jun-17 16:56 35.025851 -83.636907 343 40045ft 465kts
12-Jun-17 16:57 35.147533 -83.672370 342 40050ft 464kts
12-Jun-17 16:58 35.266296 -83.708379 342 40050ft 464kts
12-Jun-17 16:59 35.391512 -83.745435 342 40050ft 464kts
12-Jun-17 17:00 35.516153 -83.783435 342 40131ft 463kts
12-Jun-17 17:01 35.641445 -83.819466 343 40130ft 465kts
12-Jun-17 17:02 35.766978 -83.855367 342 40130ft 464kts
12-Jun-17 17:03 35.887588 -83.891101 342 40103ft 464kts
12-Jun-17 17:04 36.011918 -83.932908 340 40103ft 463kts
12-Jun-17 17:05 36.130538 -83.974720 340 40102ft 463kts
12-Jun-17 17:06 36.243022 -84.013689 340 40131ft 464kts
12-Jun-17 17:07 36.367012 -84.056538 340 40155ft 464kts
12-Jun-17 17:08 36.490909 -84.099455 340 40128ft 464kts
12-Jun-17 17:09 36.614280 -84.143462 340 40153ft 464kts
12-Jun-17 17:10 36.737929 -84.186896 340 40128ft 464kts
12-Jun-17 17:11 36.861857 -84.229457 341 40128ft 464kts
12-Jun-17 17:12 36.986346 -84.271952 341 40128ft 464kts
12-Jun-17 17:13 37.108546 -84.314288 340 40128ft 464kts
12-Jun-17 17:14 37.225236 -84.356563 340 40127ft 464kts
12-Jun-17 17:15 37.349150 -84.401717 340 40126ft 464kts
12-Jun-17 17:16 37.473611 -84.445890 338 40098ft 470kts
12-Jun-17 17:17 37.598519 -84.491025 337 40099ft 469kts
12-Jun-17 17:18 37.724242 -84.535121 338 40098ft 470kts
12-Jun-17 17:19 37.849006 -84.580914 336 40098ft 469kts
12-Jun-17 17:20 37.974763 -84.626438 339 40099ft 472kts
12-Jun-17 17:21 38.095263 -84.667380 337 40109ft 470kts
12-Jun-17 17:22 38.214675 -84.710360 337 40102ft 470kts
12-Jun-17 17:23 38.339966 -84.755970 337 40077ft 470kts
12-Jun-17 17:24 38.464931 -84.801678 337 40077ft 470kts
12-Jun-17 17:25 38.590273 -84.847887 339 40066ft 474kts
12-Jun-17 17:26 38.717868 -84.894840 339 40078ft 479kts
12-Jun-17 17:27 38.843492 -84.941196 339 40078ft 479kts
12-Jun-17 17:28 38.970844 -84.990635 341 40078ft 480kts
12-Jun-17 17:29 39.098688 -85.036371 339 40051ft 479kts
12-Jun-17 17:30 39.219881 -85.081468 339 40046ft 479kts
12-Jun-17 17:31 39.347217 -85.130571 333 40044ft 476kts
12-Jun-17 17:32 39.464615 -85.205748 328 40048ft 473kts
12-Jun-17 17:33 39.578122 -85.280961 328 40020ft 473kts
12-Jun-17 17:34 39.694652 -85.358548 328 40074ft 473kts
12-Jun-17 17:35 39.810823 -85.436434 328 40074ft 472kts
12-Jun-17 17:36 39.927512 -85.514849 328 40075ft 472kts
12-Jun-17 17:37 40.043761 -85.593078 328 40034ft 473kts
12-Jun-17 17:38 40.156248 -85.669198 328 40075ft 472kts
12-Jun-17 17:39 40.263639 -85.742164 328 40030ft 472kts
12-Jun-17 17:40 40.379980 -85.821507 328 40022ft 472kts
12-Jun-17 17:41 40.496140 -85.901505 328 40022ft 472kts
12-Jun-17 17:42 40.611453 -85.981905 328 40021ft 473kts
12-Jun-17 17:43 40.728019 -86.060966 328 39995ft 472kts
12-Jun-17 17:44 40.843646 -86.141037 328 39894ft 472kts
12-Jun-17 17:45 40.959482 -86.221487 328 37244ft 470kts
12-Jun-17 17:46 41.074099 -86.301529 328 34520ft 468kts
12-Jun-17 17:47 41.181743 -86.377827 325 31830ft 464kts
12-Jun-17 17:48 41.292480 -86.462029 328 29009ft 465kts
12-Jun-17 17:49 41.402662 -86.540722 329 26229ft 456kts
12-Jun-17 17:50 41.511849 -86.618232 328 24049ft 429kts
12-Jun-17 17:51 41.607845 -86.686662 328 22121ft 408kts
12-Jun-17 17:52 41.704804 -86.755967 328 20012ft 389kts
12-Jun-17 17:53 41.797738 -86.822600 329 17831ft 370kts
12-Jun-17 17:54 41.887601 -86.887133 328 14569ft 368kts
12-Jun-17 17:55 41.945572 -86.988804 275 12483ft 351kts
12-Jun-17 17:56 41.955909 -87.117630 272 10602ft 346kts
12-Jun-17 17:57 41.963368 -87.235458 271 9539ft 282kts
12-Jun-17 17:58 41.968357 -87.338405 266 8906ft 280kts
12-Jun-17 17:59 41.968618 -87.443646 268 7214ft 286kts
12-Jun-17 18:00 41.972723 -87.548151 273 5427ft 299kts
12-Jun-17 18:01 41.979746 -87.657250 271 4284ft 285kts
12-Jun-17 18:02 41.966094 -87.749301 233 2964ft 241kts
12-Jun-17 18:03 41.958162 -87.821887 294 2069ft 174kts
12-Jun-17 18:04 41.969125 -87.872135 267 842ft 129kts
12-Jun-17 18:05 41.970295 -87.900905 303 655ft 20kts
12-Jun-17 18:06 41.972048 -87.903413 269 654ft 14kts
12-Jun-17 18:07 41.973179 -87.905473 265 654ft 0kts
12-Jun-17 18:08 41.973179 -87.905473 265 654ft 0kts

Navigation Log

Ident Type
Flight plan parsing failed, navigation log unavailable